createdAt,value
2018-09-14T00:02:17.080Z,66.30
2018-09-14T00:04:45.877Z,66.50
2018-09-14T00:07:14.669Z,66.60
2018-09-14T00:09:43.470Z,66.60
2018-09-14T00:12:12.266Z,66.60
2018-09-14T00:14:41.109Z,66.60
2018-09-14T00:17:09.918Z,66.50
2018-09-14T00:19:38.856Z,66.70
2018-09-14T00:22:07.815Z,66.80
2018-09-14T00:24:36.630Z,66.70
2018-09-14T00:27:05.445Z,66.70
2018-09-14T00:29:34.235Z,66.70
2018-09-14T00:32:03.040Z,66.30
2018-09-14T00:34:31.838Z,66.50
2018-09-14T00:37:00.704Z,66.50
2018-09-14T00:39:29.515Z,66.40
2018-09-14T00:41:58.616Z,66.40
2018-09-14T00:44:27.459Z,66.20
2018-09-14T00:46:56.296Z,67.00
2018-09-14T00:49:25.093Z,66.50
2018-09-14T00:51:53.882Z,66.50
2018-09-14T00:54:22.666Z,66.50
2018-09-14T00:56:51.481Z,66.60
2018-09-14T00:59:20.275Z,66.70
2018-09-14T01:01:49.098Z,66.70
2018-09-14T01:04:18.816Z,66.60
2018-09-14T01:06:54.277Z,67.10
2018-09-14T01:09:25.151Z,66.60
2018-09-14T01:11:54.610Z,66.50
2018-09-14T01:14:23.495Z,66.40
2018-09-14T01:16:52.314Z,66.20
2018-09-14T01:19:21.118Z,66.00
2018-09-14T01:21:49.972Z,66.20
2018-09-14T01:24:18.916Z,66.20
2018-09-14T01:26:47.743Z,66.20
2018-09-14T01:29:16.559Z,66.00
2018-09-14T01:31:45.359Z,65.80
2018-09-14T01:34:14.426Z,65.70
2018-09-14T01:36:43.226Z,65.40
2018-09-14T01:39:12.970Z,65.20
2018-09-14T01:41:41.813Z,65.30
2018-09-14T01:44:10.639Z,65.60
2018-09-14T01:46:39.665Z,65.90
2018-09-14T01:49:08.578Z,65.70
2018-09-14T01:51:37.586Z,65.60
2018-09-14T01:54:06.394Z,65.80
2018-09-14T01:56:35.197Z,65.80
2018-09-14T01:59:03.993Z,65.80
2018-09-14T02:01:32.811Z,65.80
2018-09-14T02:04:01.625Z,65.60
2018-09-14T02:06:30.831Z,65.70
2018-09-14T02:08:59.922Z,65.50
2018-09-14T02:11:28.760Z,65.40
2018-09-14T02:13:57.702Z,65.60
2018-09-14T02:16:26.530Z,65.20
2018-09-14T02:18:55.313Z,65.30
2018-09-14T02:21:24.124Z,65.20
2018-09-14T02:23:52.951Z,64.90
2018-09-14T02:26:21.796Z,64.70
2018-09-14T02:28:50.590Z,64.40
2018-09-14T02:31:19.846Z,64.20
2018-09-14T02:33:48.741Z,64.10
2018-09-14T02:36:17.586Z,64.20
2018-09-14T02:38:46.392Z,64.30
2018-09-14T02:41:15.187Z,64.00
2018-09-14T02:43:44.001Z,63.90
2018-09-14T02:46:12.831Z,63.70
2018-09-14T02:48:41.652Z,63.80
2018-09-14T02:51:10.450Z,63.90
2018-09-14T02:53:39.550Z,63.80
2018-09-14T02:56:08.396Z,63.90
2018-09-14T02:58:37.256Z,63.90
2018-09-14T03:01:06.060Z,63.90
2018-09-14T03:03:34.867Z,63.90
2018-09-14T03:06:03.674Z,64.00
2018-09-14T03:08:32.943Z,64.00
2018-09-14T03:11:01.745Z,64.10
2018-09-14T03:13:30.556Z,64.20
2018-09-14T03:15:59.777Z,64.10
2018-09-14T03:18:28.610Z,64.10
2018-09-14T03:20:57.419Z,64.10
2018-09-14T03:23:26.241Z,64.10
2018-09-14T03:25:55.029Z,64.10
2018-09-14T03:28:26.707Z,64.30
2018-09-14T03:30:55.621Z,64.10
2018-09-14T03:33:24.436Z,64.20
2018-09-14T03:35:53.246Z,64.20
2018-09-14T03:38:22.362Z,64.20
2018-09-14T03:40:51.157Z,64.20
2018-09-14T03:43:19.952Z,64.30
2018-09-14T03:45:48.778Z,64.80
2018-09-14T03:48:17.575Z,64.60
2018-09-14T03:50:46.363Z,64.70
2018-09-14T03:53:15.174Z,64.70
2018-09-14T03:55:43.984Z,64.50
2018-09-14T03:58:12.826Z,64.50
2018-09-14T04:00:41.748Z,64.10
2018-09-14T04:03:10.566Z,64.20
2018-09-14T04:05:39.381Z,64.40
2018-09-14T04:08:08.314Z,64.30
2018-09-14T04:10:37.721Z,64.20
2018-09-14T04:13:06.636Z,64.50
2018-09-14T04:15:35.957Z,64.40
2018-09-14T04:18:04.850Z,64.00
2018-09-14T04:20:33.719Z,64.00
2018-09-14T04:23:02.685Z,64.10
2018-09-14T04:25:31.478Z,64.00
2018-09-14T04:28:00.493Z,63.80
2018-09-14T04:30:29.354Z,63.80
2018-09-14T04:32:58.170Z,63.70
2018-09-14T04:35:26.984Z,63.40
2018-09-14T04:37:55.858Z,63.40
2018-09-14T04:40:24.684Z,63.20
2018-09-14T04:42:53.470Z,62.90
2018-09-14T04:45:22.754Z,62.80
2018-09-14T04:47:51.534Z,62.80
2018-09-14T04:50:20.376Z,62.70
2018-09-14T04:52:49.161Z,62.80
2018-09-14T04:55:17.950Z,62.80
2018-09-14T04:57:46.755Z,62.90
2018-09-14T05:00:15.586Z,63.20
2018-09-14T05:02:44.416Z,63.40
2018-09-14T05:05:13.278Z,63.40
2018-09-14T05:07:42.241Z,63.40
2018-09-14T05:10:11.037Z,63.50
2018-09-14T05:12:40.321Z,63.50
2018-09-14T05:15:09.155Z,63.70
2018-09-14T05:17:37.952Z,63.60
2018-09-14T05:20:08.101Z,63.70
2018-09-14T05:22:36.913Z,63.90
2018-09-14T05:25:07.056Z,63.70
2018-09-14T05:27:35.766Z,63.90
2018-09-14T05:30:04.733Z,63.70
2018-09-14T05:32:33.618Z,63.80
2018-09-14T05:35:02.440Z,63.90
2018-09-14T05:37:31.243Z,64.00
2018-09-14T05:40:00.478Z,63.90
2018-09-14T05:42:29.278Z,63.80
2018-09-14T05:44:58.135Z,63.70
2018-09-14T05:47:26.958Z,63.60
2018-09-14T05:49:55.764Z,63.70
2018-09-14T05:52:24.857Z,64.30
2018-09-14T05:54:53.658Z,63.50
2018-09-14T05:57:22.503Z,63.40
2018-09-14T05:59:51.338Z,63.30
2018-09-14T06:02:20.181Z,63.20
2018-09-14T06:04:49.089Z,62.90
2018-09-14T06:07:17.973Z,62.80
2018-09-14T06:09:46.778Z,62.70
2018-09-14T06:12:15.606Z,63.30
2018-09-14T06:14:45.570Z,62.30
2018-09-14T06:17:15.654Z,62.30
2018-09-14T06:19:44.514Z,61.50
2018-09-14T06:22:13.338Z,62.00
2018-09-14T06:24:42.162Z,61.90
2018-09-14T06:27:11.031Z,61.90
2018-09-14T06:29:39.904Z,61.90
2018-09-14T06:32:08.707Z,61.90
2018-09-14T06:34:37.514Z,61.70
2018-09-14T06:37:06.542Z,61.70
2018-09-14T06:39:35.400Z,61.30
2018-09-14T06:42:04.242Z,61.20
2018-09-14T06:44:33.086Z,60.80
2018-09-14T06:47:01.896Z,60.40
2018-09-14T06:49:30.729Z,60.10
2018-09-14T06:51:59.591Z,60.10
2018-09-14T06:54:28.454Z,60.00
2018-09-14T06:56:57.301Z,60.00
2018-09-14T06:59:26.600Z,59.70
2018-09-14T07:01:55.412Z,59.40
2018-09-14T07:04:24.216Z,59.10
2018-09-14T07:06:53.079Z,59.10
2018-09-14T07:09:21.897Z,59.10
2018-09-14T07:11:50.718Z,58.80
2018-09-14T07:14:19.562Z,58.50
2018-09-14T07:16:48.773Z,58.60
2018-09-14T07:19:17.599Z,58.70
2018-09-14T07:21:46.638Z,58.50
2018-09-14T07:24:15.407Z,58.40
2018-09-14T07:26:44.246Z,58.40
2018-09-14T07:29:13.182Z,58.10
2018-09-14T07:31:41.985Z,58.00
2018-09-14T07:34:10.731Z,57.70
2018-09-14T07:36:39.582Z,57.40
2018-09-14T07:39:10.017Z,57.10
2018-09-14T07:41:38.833Z,57.20
2018-09-14T07:44:08.113Z,57.20
2018-09-14T07:46:36.894Z,56.90
2018-09-14T07:49:05.806Z,56.90
2018-09-14T07:51:34.601Z,56.40
2018-09-14T07:54:03.390Z,56.00
2018-09-14T07:56:32.228Z,55.80
2018-09-14T07:59:01.159Z,55.80
2018-09-14T08:01:29.951Z,55.70
2018-09-14T08:03:58.830Z,55.50
2018-09-14T08:06:28.114Z,55.50
2018-09-14T08:08:56.901Z,55.60
2018-09-14T08:11:25.706Z,55.70
2018-09-14T08:13:54.745Z,55.50
2018-09-14T08:16:23.588Z,55.30
2018-09-14T08:18:52.857Z,55.20
2018-09-14T08:21:21.730Z,55.30
2018-09-14T08:23:50.478Z,54.90
2018-09-14T08:26:19.291Z,54.80
2018-09-14T08:28:48.522Z,54.90
2018-09-14T08:31:17.390Z,54.80
2018-09-14T08:33:46.202Z,54.80
2018-09-14T08:36:15.115Z,54.80
2018-09-14T08:38:43.926Z,54.50
2018-09-14T08:41:12.737Z,54.30
2018-09-14T08:43:41.685Z,54.10
2018-09-14T08:46:10.470Z,53.80
2018-09-14T08:48:39.266Z,53.70
2018-09-14T08:51:09.195Z,53.40
2018-09-14T08:53:38.112Z,53.60
2018-09-14T08:56:06.957Z,53.20
2018-09-14T08:58:35.763Z,53.10
2018-09-14T09:01:04.649Z,53.00
2018-09-14T09:03:33.448Z,53.10
2018-09-14T09:06:02.271Z,52.50
2018-09-14T09:08:31.078Z,52.40
2018-09-14T09:10:59.941Z,52.40
2018-09-14T09:13:29.197Z,52.10
2018-09-14T09:15:59.054Z,52.10
2018-09-14T09:18:27.958Z,52.20
2018-09-14T09:20:57.241Z,51.90
2018-09-14T09:23:26.130Z,52.10
2018-09-14T09:25:54.934Z,51.70
2018-09-14T09:28:23.773Z,51.40
2018-09-14T09:30:52.625Z,51.10
2018-09-14T09:33:22.063Z,51.00
2018-09-14T09:35:51.074Z,50.90
2018-09-14T09:38:19.867Z,50.80
2018-09-14T09:40:48.676Z,50.20
2018-09-14T09:43:17.602Z,50.00
2018-09-14T09:45:46.530Z,49.90
2018-09-14T09:48:15.357Z,49.70
2018-09-14T09:50:44.203Z,50.00
2018-09-14T09:53:12.998Z,50.10
2018-09-14T09:55:41.811Z,49.70
2018-09-14T09:58:10.980Z,49.60
2018-09-14T10:00:42.949Z,49.80
2018-09-14T10:03:17.061Z,50.40
2018-09-14T10:05:51.084Z,49.70
2018-09-14T10:08:19.902Z,49.90
2018-09-14T10:10:48.759Z,49.30
2018-09-14T10:13:17.572Z,49.30
2018-09-14T10:15:46.726Z,49.10
2018-09-14T10:18:15.511Z,48.90
2018-09-14T10:20:44.362Z,49.00
2018-09-14T10:23:13.613Z,48.90
2018-09-14T10:25:42.448Z,49.20
2018-09-14T10:28:11.314Z,49.20
2018-09-14T10:30:40.127Z,48.80
2018-09-14T10:33:08.954Z,48.80
2018-09-14T10:35:37.754Z,48.60
2018-09-14T10:38:07.199Z,48.70
2018-09-14T10:40:36.005Z,48.50
2018-09-14T10:43:04.754Z,48.40
2018-09-14T10:45:33.595Z,48.40
2018-09-14T10:48:02.394Z,48.20
2018-09-14T10:50:31.262Z,48.20
2018-09-14T10:53:00.082Z,48.30
2018-09-14T10:55:29.006Z,48.10
2018-09-14T10:57:57.789Z,48.20
2018-09-14T11:00:26.718Z,48.30
2018-09-14T11:02:55.512Z,48.70
2018-09-14T11:05:24.311Z,48.50
2018-09-14T11:07:53.129Z,48.30
2018-09-14T11:10:21.938Z,48.10
2018-09-14T11:12:50.773Z,48.00
2018-09-14T11:15:19.697Z,47.80
2018-09-14T11:17:48.507Z,47.80
2018-09-14T11:20:17.318Z,47.80
2018-09-14T11:22:46.466Z,47.60
2018-09-14T11:25:15.878Z,47.60
2018-09-14T11:27:44.678Z,47.50
2018-09-14T11:30:13.460Z,47.60
2018-09-14T11:32:42.277Z,47.40
2018-09-14T11:35:11.106Z,47.60
2018-09-14T11:37:39.953Z,47.50
2018-09-14T11:40:08.875Z,47.80
2018-09-14T11:42:40.741Z,47.20
2018-09-14T11:45:10.023Z,47.10
2018-09-14T11:47:38.790Z,47.00
2018-09-14T11:50:08.473Z,46.60
2018-09-14T11:52:37.326Z,46.70
2018-09-14T11:55:06.184Z,46.80
2018-09-14T11:57:34.990Z,46.80
2018-09-14T12:00:03.810Z,46.30
2018-09-14T12:02:32.624Z,46.00
2018-09-14T12:05:01.418Z,45.90
2018-09-14T12:07:34.807Z,45.80
2018-09-14T12:10:03.625Z,46.00
2018-09-14T12:12:32.547Z,45.50
2018-09-14T12:15:01.894Z,45.40
2018-09-14T12:17:30.733Z,45.50
2018-09-14T12:19:59.619Z,46.20
2018-09-14T12:22:28.426Z,45.20
2018-09-14T12:24:57.230Z,45.00
2018-09-14T12:27:26.306Z,44.90
2018-09-14T12:29:55.446Z,45.10
2018-09-14T12:32:24.234Z,45.10
2018-09-14T12:34:53.034Z,45.00
2018-09-14T12:37:21.836Z,44.70
2018-09-14T12:39:50.646Z,44.60
2018-09-14T12:42:19.437Z,44.70
2018-09-14T12:44:48.255Z,44.40
2018-09-14T12:47:17.077Z,44.50
2018-09-14T12:49:45.875Z,44.10
2018-09-14T12:52:14.991Z,43.70
2018-09-14T12:54:43.773Z,43.60
2018-09-14T12:57:12.589Z,43.40
2018-09-14T12:59:41.434Z,43.30
2018-09-14T13:02:10.255Z,43.40
2018-09-14T13:04:39.050Z,44.00
2018-09-14T13:07:07.933Z,43.20
2018-09-14T13:09:37.326Z,43.40
2018-09-14T13:12:06.190Z,43.40
2018-09-14T13:14:35.322Z,43.70
2018-09-14T13:17:04.077Z,43.30
2018-09-14T13:19:32.883Z,43.40
2018-09-14T13:22:01.693Z,43.40
2018-09-14T13:24:31.183Z,43.10
2018-09-14T13:27:00.033Z,43.00
2018-09-14T13:29:29.391Z,43.20
2018-09-14T13:31:58.210Z,42.70
2018-09-14T13:34:27.018Z,42.80
2018-09-14T13:36:56.121Z,42.60
2018-09-14T13:39:25.018Z,42.90
2018-09-14T13:41:53.827Z,42.70
2018-09-14T13:44:22.640Z,42.60
2018-09-14T13:46:51.498Z,42.70
2018-09-14T13:49:20.318Z,42.70
2018-09-14T13:51:49.128Z,42.80
2018-09-14T13:54:17.997Z,42.90
2018-09-14T13:56:46.794Z,42.70
2018-09-14T13:59:15.914Z,42.70
2018-09-14T14:01:44.935Z,42.50
2018-09-14T14:04:13.621Z,42.50
2018-09-14T14:06:42.601Z,42.50
2018-09-14T14:09:12.714Z,42.30
2018-09-14T14:11:41.613Z,42.00
2018-09-14T14:14:11.247Z,42.20
2018-09-14T14:16:40.139Z,42.30
2018-09-14T14:19:09.410Z,42.40
2018-09-14T14:21:38.610Z,42.10
2018-09-14T14:24:07.515Z,42.00
2018-09-14T14:26:36.331Z,41.90
2018-09-14T14:29:05.213Z,42.00
2018-09-14T14:31:34.298Z,41.90
2018-09-14T14:34:03.090Z,41.70
2018-09-14T14:36:31.907Z,41.80
2018-09-14T14:39:00.717Z,41.80
2018-09-14T14:41:29.709Z,41.70
2018-09-14T14:43:58.753Z,41.60
2018-09-14T14:46:27.628Z,41.60
2018-09-14T14:48:56.421Z,41.50
2018-09-14T14:51:25.250Z,41.40
2018-09-14T14:53:54.154Z,41.60
2018-09-14T14:56:22.974Z,41.90
2018-09-14T14:58:51.806Z,41.70
2018-09-14T15:01:20.670Z,41.30
2018-09-14T15:03:49.520Z,41.50
2018-09-14T15:06:18.644Z,41.20
2018-09-14T15:08:47.476Z,41.20
2018-09-14T15:11:16.299Z,40.90
2018-09-14T15:13:45.214Z,40.90
2018-09-14T15:16:14.018Z,40.80
2018-09-14T15:18:43.029Z,40.90
2018-09-14T15:21:11.837Z,40.80
2018-09-14T15:23:40.638Z,40.70
2018-09-14T15:26:09.461Z,40.50
2018-09-14T15:28:38.449Z,40.80
2018-09-14T15:31:07.318Z,40.70
2018-09-14T15:33:36.669Z,40.80
2018-09-14T15:36:05.562Z,40.80
2018-09-14T15:38:34.404Z,41.50
2018-09-14T15:41:03.281Z,40.60
2018-09-14T15:43:32.116Z,40.50
2018-09-14T15:46:00.963Z,40.40
2018-09-14T15:48:29.760Z,40.60
2018-09-14T15:50:58.744Z,41.30
2018-09-14T15:53:27.594Z,41.70
2018-09-14T15:55:56.393Z,42.00
2018-09-14T15:58:25.241Z,42.10
2018-09-14T16:00:54.054Z,42.20
2018-09-14T16:03:22.916Z,42.50
2018-09-14T16:05:52.149Z,42.60
2018-09-14T16:08:21.002Z,42.50
2018-09-14T16:10:49.810Z,42.70
2018-09-14T16:13:19.004Z,43.10
2018-09-14T16:15:47.814Z,43.00
2018-09-14T16:18:16.621Z,42.70
2018-09-14T16:20:45.494Z,43.00
2018-09-14T16:23:14.350Z,43.10
2018-09-14T16:25:43.153Z,43.80
2018-09-14T16:28:12.026Z,43.20
2018-09-14T16:30:40.837Z,43.30
2018-09-14T16:33:09.649Z,43.50
2018-09-14T16:35:38.976Z,43.90
2018-09-14T16:38:07.786Z,43.60
2018-09-14T16:40:36.718Z,43.70
2018-09-14T16:43:05.649Z,43.80
2018-09-14T16:45:34.540Z,43.90
2018-09-14T16:48:03.361Z,43.90
2018-09-14T16:50:32.331Z,43.90
2018-09-14T16:53:01.109Z,44.10
2018-09-14T16:55:29.886Z,44.20
2018-09-14T16:57:58.960Z,44.30
2018-09-14T17:00:27.811Z,44.50
2018-09-14T17:02:56.622Z,44.70
2018-09-14T17:05:25.485Z,44.90
2018-09-14T17:07:54.305Z,44.90
2018-09-14T17:10:23.117Z,45.00
2018-09-14T17:12:51.933Z,45.50
2018-09-14T17:15:20.761Z,45.30
2018-09-14T17:17:49.571Z,45.50
2018-09-14T17:20:18.598Z,45.80
2018-09-14T17:22:47.646Z,45.90
2018-09-14T17:25:16.468Z,46.10
2018-09-14T17:27:45.422Z,46.30
2018-09-14T17:30:14.250Z,46.40
2018-09-14T17:32:43.046Z,46.60
2018-09-14T17:35:12.093Z,46.80
2018-09-14T17:37:42.218Z,47.00
2018-09-14T17:40:11.094Z,47.20
2018-09-14T17:42:40.201Z,47.30
2018-09-14T17:45:09.064Z,47.40
2018-09-14T17:47:37.974Z,47.60
2018-09-14T17:50:08.025Z,47.80
2018-09-14T17:52:36.833Z,48.10
2018-09-14T17:55:06.771Z,48.30
2018-09-14T17:57:35.664Z,48.50
2018-09-14T18:00:04.614Z,48.60
2018-09-14T18:02:33.436Z,48.70
2018-09-14T18:05:02.693Z,48.80
2018-09-14T18:07:31.566Z,49.00
2018-09-14T18:10:00.470Z,49.00
2018-09-14T18:12:29.373Z,49.20
2018-09-14T18:14:58.341Z,49.30
2018-09-14T18:17:27.154Z,49.50
2018-09-14T18:19:56.131Z,49.50
2018-09-14T18:22:24.935Z,49.60
2018-09-14T18:24:53.749Z,49.80
2018-09-14T18:27:22.731Z,50.00
2018-09-14T18:29:51.590Z,50.00
2018-09-14T18:32:20.389Z,50.30
2018-09-14T18:34:49.334Z,50.40
2018-09-14T18:37:18.145Z,50.60
2018-09-14T18:39:47.278Z,50.70
2018-09-14T18:42:16.132Z,50.90
2018-09-14T18:44:44.932Z,51.10
2018-09-14T18:47:13.841Z,51.20
2018-09-14T18:49:43.034Z,51.40
2018-09-14T18:52:11.913Z,51.50
2018-09-14T18:54:40.705Z,51.60
2018-09-14T18:57:09.537Z,51.80
2018-09-14T18:59:38.353Z,51.90
2018-09-14T19:02:07.286Z,52.10
2018-09-14T19:04:36.137Z,52.20
2018-09-14T19:07:04.954Z,52.40
2018-09-14T19:09:33.765Z,52.50
2018-09-14T19:12:02.841Z,52.70
2018-09-14T19:14:31.654Z,52.80
2018-09-14T19:17:00.467Z,53.00
2018-09-14T19:19:35.638Z,53.20
2018-09-14T19:22:04.617Z,53.40
2018-09-14T19:24:33.481Z,53.50
2018-09-14T19:27:02.309Z,53.70
2018-09-14T19:29:31.137Z,53.90
2018-09-14T19:31:59.961Z,53.90
2018-09-14T19:34:29.309Z,54.20
2018-09-14T19:36:58.128Z,54.40
2018-09-14T19:39:26.958Z,54.50
2018-09-14T19:41:56.269Z,54.70
2018-09-14T19:44:25.161Z,54.80
2018-09-14T19:46:53.898Z,55.00
2018-09-14T19:49:22.757Z,55.10
2018-09-14T19:51:51.775Z,55.20
2018-09-14T19:54:20.681Z,55.20
2018-09-14T19:56:50.025Z,55.40
2018-09-14T19:59:18.863Z,55.70
2018-09-14T20:01:47.686Z,55.70
2018-09-14T20:04:16.529Z,56.00
2018-09-14T20:06:45.337Z,56.10
2018-09-14T20:09:18.277Z,56.10
2018-09-14T20:11:47.153Z,56.30
2018-09-14T20:14:15.918Z,56.40
2018-09-14T20:16:44.734Z,56.50
2018-09-14T20:19:13.685Z,56.60
2018-09-14T20:21:42.505Z,56.70
2018-09-14T20:24:11.378Z,56.80
2018-09-14T20:26:40.242Z,57.00
2018-09-14T20:29:09.046Z,57.10
2018-09-14T20:31:37.894Z,57.10
2018-09-14T20:34:06.789Z,57.30
2018-09-14T20:36:35.658Z,57.40
2018-09-14T20:39:06.273Z,57.60
2018-09-14T20:41:35.410Z,57.70
2018-09-14T20:44:04.716Z,57.90
2018-09-14T20:46:33.645Z,58.00
2018-09-14T20:49:02.475Z,57.90
2018-09-14T20:51:31.260Z,57.90
2018-09-14T20:54:00.233Z,58.00
2018-09-14T20:56:29.038Z,58.10
2018-09-14T20:58:57.854Z,58.10
2018-09-14T21:01:26.671Z,58.00
2018-09-14T21:03:55.694Z,58.00
2018-09-14T21:06:31.288Z,58.10
2018-09-14T21:09:00.111Z,58.00
2018-09-14T21:11:28.919Z,57.90
2018-09-14T21:13:57.774Z,57.80
2018-09-14T21:16:26.593Z,57.80
2018-09-14T21:18:55.388Z,57.60
2018-09-14T21:21:24.197Z,57.60
2018-09-14T21:23:53.209Z,57.50
2018-09-14T21:26:22.020Z,57.50
2018-09-14T21:28:50.849Z,57.60
2018-09-14T21:31:19.670Z,57.60
2018-09-14T21:33:48.486Z,57.50
2018-09-14T21:36:17.302Z,57.60
2018-09-14T21:38:52.793Z,57.60
2018-09-14T21:41:21.616Z,57.60
2018-09-14T21:43:50.473Z,57.50
2018-09-14T21:46:20.108Z,57.60
2018-09-14T21:48:48.949Z,57.60
2018-09-14T21:51:17.794Z,57.60
2018-09-14T21:53:46.665Z,57.70
2018-09-14T21:56:15.438Z,57.80
2018-09-14T21:58:44.269Z,57.80
2018-09-14T22:01:14.603Z,57.80
2018-09-14T22:03:44.911Z,57.80
2018-09-14T22:06:13.770Z,57.90
2018-09-14T22:08:43.115Z,57.80
2018-09-14T22:11:12.000Z,58.00
2018-09-14T22:13:40.781Z,58.10
2018-09-14T22:16:09.586Z,58.10
2018-09-14T22:18:38.425Z,58.00
2018-09-14T22:21:07.754Z,58.00
2018-09-14T22:23:36.592Z,58.20
2018-09-14T22:26:05.390Z,58.40
2018-09-14T22:28:34.426Z,58.00
2018-09-14T22:31:03.723Z,58.10
2018-09-14T22:33:33.013Z,57.80
2018-09-14T22:36:01.834Z,57.80
2018-09-14T22:38:30.669Z,57.80
2018-09-14T22:40:59.465Z,57.90
2018-09-14T22:43:28.278Z,57.80
2018-09-14T22:45:57.138Z,57.80
2018-09-14T22:48:26.516Z,58.00
2018-09-14T22:50:55.307Z,58.10
2018-09-14T22:53:25.265Z,57.90
2018-09-14T22:55:54.082Z,57.70
2018-09-14T22:58:22.880Z,57.50
2018-09-14T23:00:57.088Z,57.80
2018-09-14T23:03:25.876Z,57.70
2018-09-14T23:05:54.673Z,57.80
2018-09-14T23:08:23.469Z,57.80
2018-09-14T23:10:52.249Z,57.70
2018-09-14T23:13:21.027Z,57.70
2018-09-14T23:15:55.977Z,57.70
2018-09-14T23:18:24.852Z,57.70
2018-09-14T23:20:53.645Z,57.50
2018-09-14T23:23:22.710Z,57.40
2018-09-14T23:25:52.322Z,57.50
2018-09-14T23:28:21.231Z,57.50
2018-09-14T23:30:50.164Z,57.40
2018-09-14T23:33:18.957Z,57.40
2018-09-14T23:35:47.796Z,57.30
2018-09-14T23:38:16.777Z,57.30
2018-09-14T23:40:45.643Z,57.20
2018-09-14T23:43:14.369Z,57.10
2018-09-14T23:45:43.198Z,57.10
2018-09-14T23:48:12.019Z,57.00
2018-09-14T23:50:41.454Z,57.00
2018-09-14T23:53:10.334Z,56.80
2018-09-14T23:55:39.185Z,56.80
2018-09-14T23:58:08.010Z,56.70
